Pagrindinis puslapis
METAR-TAF:

METAR-TAF

Oro uostai :

Stokholmas, Švedija

platuma: 59-21N, ilguma: 017-57E, Aukštis: 14 m

Dabartinis oras

Ataskaita buvo paskelbta 24 minutes, ne 09:50 UTC
Vėjas 5 kt iš Vakarų/Šiaurės Vakarų
Temperatūra -3°C
Drėgmė 86%
Slėgis 1010 hPa
Matomumas 10 km arba daugiau
Su prošvaistėmis ne aukštis 700 ft

METAR: ESSB 100950Z 30005KT 9999 BKN007 M03/M05 Q1010

Laikas: 11:14 (10:14 UTC)

Prognozė

Ataskaita buvo paskelbta 1 valandą ir 44 minutes, ne 08:30 UTC
Prognozė galioja nuo 10 metu 09 UTC su 10 metu 17 UTC
Vėjas 7 kt iš Šiaurės Vakarų
Matomumas 10 km arba daugiau
Apsiniaukę ne aukštis 600 ft
Tapsmas
nuo 10 metu 09 UTC su 10 metu 11 UTC
Su prošvaistėmis ne aukštis 1500 ft
Tikimybė 40%
nuo 10 metu 09 UTC su 10 metu 17 UTC
Matomumas: 4000 m
Su prošvaistėmis ne aukštis 1000 ft
sniegas

TAF: ESSB 100830Z 1009/1017 31007KT 9999 OVC006 BECMG 1009/1011 BKN015 PROB40 1009/1017 4000 -SN BKN010

Orai ataskaitas ir orų prognozės (METAR, TAF).

turimą stotys yra geltonos ir raudonos taškus žemėlapyje.

Perkelti pele per norėdami pamatyti stoties vardą.

Tada spustelėkite, norėdami matyti oro stebėjimo ir prognozės.

Norėdami pakeisti žemėlapį: spustelėkite ant žalios mygtukų su juodo kryžiaus žemyn,; žalią mygtuką su brūkšneliu, jei norite nutolinti; arba žalių rodyklių gretimoms žemėlapius.


METAR-TAF: